createdAt,value
2023-02-03T00:04:13.511Z,-1.55
2023-02-03T00:09:17.214Z,-1.60
2023-02-03T00:14:20.216Z,-1.66
2023-02-03T00:19:23.113Z,-1.77
2023-02-03T00:24:26.322Z,-1.86
2023-02-03T00:29:30.544Z,-1.94
2023-02-03T00:34:34.915Z,-2.00
2023-02-03T00:39:39.920Z,-2.06
2023-02-03T00:44:42.841Z,-2.08
2023-02-03T00:49:49.952Z,-2.17
2023-02-03T00:54:53.129Z,-2.21
2023-02-03T00:59:58.241Z,-2.24
2023-02-03T01:05:01.170Z,-2.26
2023-02-03T01:10:06.428Z,-2.28
2023-02-03T01:15:14.190Z,-2.26
2023-02-03T01:20:17.851Z,-2.29
2023-02-03T01:25:20.922Z,-2.30
2023-02-03T01:30:26.356Z,-2.39
2023-02-03T01:35:32.038Z,-2.38
2023-02-03T01:40:44.276Z,-2.49
2023-02-03T01:45:47.247Z,-2.59
2023-02-03T01:50:50.414Z,-2.58
2023-02-03T01:55:53.967Z,-2.59
2023-02-03T02:00:59.014Z,-2.73
2023-02-03T02:06:09.332Z,-2.82
2023-02-03T02:11:12.662Z,-2.87
2023-02-03T02:16:35.545Z,-2.86
2023-02-03T02:22:16.795Z,-2.95
2023-02-03T02:27:42.673Z,-2.99
2023-02-03T02:33:01.829Z,-3.00
2023-02-03T02:38:41.231Z,-3.00
2023-02-03T02:44:11.370Z,-2.98
2023-02-03T02:49:30.864Z,-2.97
2023-02-03T02:54:39.417Z,-2.87
2023-02-03T02:59:42.612Z,-2.73
2023-02-03T03:04:49.775Z,-2.60
2023-02-03T03:09:59.728Z,-2.51
2023-02-03T03:15:13.078Z,-2.60
2023-02-03T03:20:24.503Z,-2.70
2023-02-03T03:25:41.934Z,-2.70
2023-02-03T03:30:45.099Z,-2.66
2023-02-03T03:36:03.384Z,-2.66
2023-02-03T03:41:34.476Z,-2.66
2023-02-03T03:46:49.077Z,-2.73
2023-02-03T03:52:02.794Z,-2.77
2023-02-03T03:57:15.740Z,-2.73
2023-02-03T04:02:21.584Z,-2.68
2023-02-03T04:07:47.045Z,-2.63
2023-02-03T04:12:49.978Z,-2.51
2023-02-03T04:17:54.806Z,-2.40
2023-02-03T04:22:59.177Z,-2.29
2023-02-03T04:28:02.360Z,-2.22
2023-02-03T04:33:05.266Z,-2.18
2023-02-03T04:38:08.241Z,-2.15
2023-02-03T04:43:12.318Z,-2.14
2023-02-03T04:48:15.481Z,-2.22
2023-02-03T04:53:18.614Z,-2.29
2023-02-03T04:58:21.920Z,-2.26
2023-02-03T05:03:26.270Z,-2.28
2023-02-03T05:08:30.810Z,-2.27
2023-02-03T05:13:33.976Z,-2.30
2023-02-03T05:18:36.877Z,-2.26
2023-02-03T05:23:39.761Z,-2.20
2023-02-03T05:28:42.634Z,-2.08
2023-02-03T05:33:45.550Z,-2.11
2023-02-03T05:38:48.423Z,-1.97
2023-02-03T05:43:52.910Z,-1.72
2023-02-03T05:48:55.845Z,-1.56
2023-02-03T05:53:58.715Z,-1.53
2023-02-03T05:59:01.604Z,-1.57
2023-02-03T06:04:05.695Z,-1.59
2023-02-03T06:09:09.803Z,-1.72
2023-02-03T06:14:12.890Z,-1.83
2023-02-03T06:19:16.490Z,-1.75
2023-02-03T06:24:19.661Z,-1.67
2023-02-03T06:29:22.848Z,-1.66
2023-02-03T06:34:26.100Z,-1.69
2023-02-03T06:39:29.197Z,-1.66
2023-02-03T06:44:32.220Z,-1.78
2023-02-03T06:49:35.368Z,-1.89
2023-02-03T06:54:38.576Z,-1.88
2023-02-03T06:59:41.875Z,-1.89
2023-02-03T07:04:45.669Z,-1.74
2023-02-03T07:09:48.743Z,-1.70
2023-02-03T07:14:51.791Z,-1.66
2023-02-03T07:19:54.993Z,-1.61
2023-02-03T07:24:58.005Z,-1.61
2023-02-03T07:30:00.951Z,-1.63
2023-02-03T07:35:04.295Z,-1.59
2023-02-03T07:40:07.639Z,-1.58
2023-02-03T07:45:12.479Z,-1.45
2023-02-03T07:50:15.625Z,-1.27
2023-02-03T07:55:18.896Z,-1.04
2023-02-03T08:00:22.500Z,-0.77
2023-02-03T08:05:29.863Z,-0.51
2023-02-03T08:10:32.986Z,-0.21
2023-02-03T08:15:36.891Z,-0.03
2023-02-03T08:20:40.522Z,0.15
2023-02-03T08:25:43.845Z,0.25
2023-02-03T08:30:47.170Z,0.28
2023-02-03T08:35:51.269Z,0.26
2023-02-03T08:40:54.408Z,0.27
2023-02-03T08:45:57.493Z,0.26
2023-02-03T08:51:00.777Z,0.22
2023-02-03T08:56:10.048Z,0.29
2023-02-03T09:01:16.095Z,0.37
2023-02-03T09:06:20.753Z,0.32
2023-02-03T09:11:25.560Z,0.33
2023-02-03T09:16:28.575Z,0.37
2023-02-03T09:21:34.118Z,0.44
2023-02-03T09:26:39.314Z,0.58
2023-02-03T09:31:42.547Z,0.71
2023-02-03T09:36:45.602Z,0.74
2023-02-03T09:42:12.139Z,0.72
2023-02-03T09:47:39.549Z,0.69
2023-02-03T09:52:44.474Z,0.68
2023-02-03T09:58:14.081Z,0.65
2023-02-03T10:03:33.755Z,0.70
2023-02-03T10:09:15.116Z,0.72
2023-02-03T10:14:51.901Z,0.82
2023-02-03T10:20:16.888Z,0.91
2023-02-03T10:25:27.746Z,0.92
2023-02-03T10:30:45.905Z,0.98
2023-02-03T10:36:07.926Z,0.99
2023-02-03T10:41:11.136Z,1.11
2023-02-03T10:46:20.939Z,1.20
2023-02-03T10:51:33.281Z,1.21
2023-02-03T10:56:39.437Z,1.20
2023-02-03T11:01:47.169Z,1.19
2023-02-03T11:07:03.520Z,1.19
2023-02-03T11:12:19.532Z,1.16
2023-02-03T11:17:27.563Z,1.11
2023-02-03T11:22:38.000Z,1.06
2023-02-03T11:27:41.275Z,1.10
2023-02-03T11:32:48.055Z,1.13
2023-02-03T11:37:55.349Z,1.19
2023-02-03T11:42:58.146Z,1.21
2023-02-03T11:48:25.206Z,1.16
2023-02-03T11:53:47.830Z,1.11
2023-02-03T11:59:21.329Z,1.01
2023-02-03T12:05:00.837Z,0.99
2023-02-03T12:10:51.768Z,0.92
2023-02-03T12:16:15.972Z,0.83
2023-02-03T12:21:48.130Z,0.79
2023-02-03T12:27:18.252Z,0.74
2023-02-03T12:32:40.441Z,0.75
2023-02-03T12:38:15.724Z,0.76
2023-02-03T12:43:37.665Z,0.78
2023-02-03T12:48:59.653Z,0.79
2023-02-03T12:54:26.560Z,0.74
2023-02-03T12:59:31.800Z,0.66
2023-02-03T13:04:49.683Z,0.59
2023-02-03T13:10:06.365Z,0.55
2023-02-03T13:15:34.491Z,0.49
2023-02-03T13:20:38.311Z,0.51
2023-02-03T13:25:59.868Z,0.52
2023-02-03T13:31:39.762Z,0.50
2023-02-03T13:36:48.786Z,0.45
2023-02-03T13:41:58.005Z,0.40
2023-02-03T13:47:02.164Z,0.34
2023-02-03T13:52:05.246Z,0.29
2023-02-03T13:57:42.649Z,0.23
2023-02-03T14:02:54.578Z,0.23
2023-02-03T14:07:58.219Z,0.15
2023-02-03T14:13:09.686Z,0.13
2023-02-03T14:18:35.445Z,0.10
2023-02-03T14:23:58.607Z,0.05
2023-02-03T14:29:03.356Z,0.03
2023-02-03T14:34:14.662Z,0.01
2023-02-03T14:39:17.536Z,-0.01
2023-02-03T14:44:38.501Z,-0.07
2023-02-03T14:50:13.858Z,-0.13
2023-02-03T14:55:38.935Z,-0.18
2023-02-03T15:00:43.207Z,-0.20
2023-02-03T15:05:51.570Z,-0.21
2023-02-03T15:10:54.765Z,-0.22
2023-02-03T15:16:02.184Z,-0.23
2023-02-03T15:21:05.572Z,-0.23
2023-02-03T15:26:18.145Z,-0.26
2023-02-03T15:31:34.149Z,-0.28
2023-02-03T15:36:50.126Z,-0.30
2023-02-03T15:41:59.834Z,-0.31
2023-02-03T15:47:07.505Z,-0.32
2023-02-03T15:52:24.145Z,-0.31
2023-02-03T15:57:33.950Z,-0.35
2023-02-03T16:02:45.956Z,-0.37
2023-02-03T16:07:49.126Z,-0.38
2023-02-03T16:12:52.131Z,-0.36
2023-02-03T16:17:59.723Z,-0.37
2023-02-03T16:23:20.871Z,-0.39
2023-02-03T16:28:42.384Z,-0.39
2023-02-03T16:34:08.893Z,-0.45
2023-02-03T16:39:32.054Z,-0.48
2023-02-03T16:44:53.627Z,-0.52
2023-02-03T16:50:15.122Z,-0.50
2023-02-03T16:55:18.056Z,-0.54
2023-02-03T17:00:22.183Z,-0.56
2023-02-03T17:05:25.203Z,-0.58
2023-02-03T17:10:28.179Z,-0.58
2023-02-03T17:15:31.499Z,-0.60
2023-02-03T17:20:35.619Z,-0.59
2023-02-03T17:25:40.584Z,-0.62
2023-02-03T17:30:44.015Z,-0.62
2023-02-03T17:35:47.079Z,-0.63
2023-02-03T17:56:56.427Z,-0.65
2023-02-03T18:01:59.493Z,-0.65
2023-02-03T18:07:02.466Z,-0.65
2023-02-03T18:12:05.590Z,-0.69
2023-02-03T18:17:08.612Z,-0.70
2023-02-03T18:22:11.528Z,-0.70
2023-02-03T18:27:17.338Z,-0.72
2023-02-03T18:32:20.885Z,-0.74
2023-02-03T18:37:23.877Z,-0.73
2023-02-03T18:42:26.988Z,-0.73
2023-02-03T18:47:35.510Z,-0.73
2023-02-03T18:52:38.947Z,-0.74
2023-02-03T18:57:42.358Z,-0.74
2023-02-03T19:02:51.252Z,-0.73
2023-02-03T19:08:08.819Z,-0.72
2023-02-03T19:13:20.396Z,-0.71
2023-02-03T19:18:26.700Z,-0.71
2023-02-03T19:23:51.113Z,-0.72
2023-02-03T19:28:55.924Z,-0.71
2023-02-03T19:34:02.497Z,-0.70
2023-02-03T19:39:09.075Z,-0.74
2023-02-03T19:44:14.224Z,-0.76
2023-02-03T19:49:17.596Z,-0.76
2023-02-03T19:54:20.898Z,-0.79
2023-02-03T19:59:23.997Z,-0.80
2023-02-03T20:04:28.323Z,-0.81
2023-02-03T20:09:34.946Z,-0.82
2023-02-03T20:14:48.860Z,-0.85
2023-02-03T20:19:55.370Z,-0.85
2023-02-03T20:25:06.138Z,-0.86
2023-02-03T20:30:11.262Z,-0.86
2023-02-03T20:35:14.721Z,-0.86
2023-02-03T20:40:30.262Z,-0.87
2023-02-03T20:45:34.937Z,-0.86
2023-02-03T20:50:42.596Z,-0.89
2023-02-03T20:55:46.170Z,-0.88
2023-02-03T21:00:50.263Z,-0.90
2023-02-03T21:05:56.287Z,-0.91
2023-02-03T21:10:59.594Z,-0.90
2023-02-03T21:16:32.690Z,-0.91
2023-02-03T21:21:47.394Z,-0.92
2023-02-03T21:26:53.184Z,-0.89
2023-02-03T21:31:56.406Z,-0.88
2023-02-03T21:37:26.712Z,-0.91
2023-02-03T21:42:42.493Z,-0.90
2023-02-03T21:47:49.714Z,-0.88
2023-02-03T21:52:53.141Z,-0.88
2023-02-03T21:57:56.249Z,-0.88
2023-02-03T22:03:00.888Z,-0.90
2023-02-03T22:08:22.255Z,-0.90
2023-02-03T22:13:46.875Z,-0.92
2023-02-03T22:18:51.072Z,-0.96
2023-02-03T22:23:57.226Z,-0.99
2023-02-03T22:29:40.196Z,-1.01
2023-02-03T22:35:08.882Z,-1.04
2023-02-03T22:40:44.880Z,-1.05
2023-02-03T22:46:12.061Z,-1.05
2023-02-03T22:51:18.202Z,-1.08
2023-02-03T22:56:41.975Z,-1.10
2023-02-03T23:02:09.215Z,-1.12
2023-02-03T23:08:02.943Z,-1.15
2023-02-03T23:14:11.883Z,-1.16
2023-02-03T23:19:30.798Z,-1.19
2023-02-03T23:25:17.609Z,-1.21
2023-02-03T23:30:46.957Z,-1.21
2023-02-03T23:36:30.401Z,-1.23
2023-02-03T23:42:09.573Z,-1.27
2023-02-03T23:47:46.804Z,-1.29
2023-02-03T23:53:33.365Z,-1.28
2023-02-03T23:58:44.274Z,-1.28
